Flight Track Log - Related Links

Times and Time Zones

All times are in EDT time to prevent confusion due to time zone crossing. See the SWA407 flight status page for this flight to view local times or setup timezone preferences in your user account.

Time Position Orientation Groundspeed Altitude Reporting Facility
EDT Latitude Longitude Course Direction KTS MPH feet Rate Location/Type
Fri 05:14:29 PM 33.6497 -84.3733 63° Northeast 444 511 2,600  Level Atlanta Center
Fri 05:15:04 PM 33.6667 -84.3333 63° Northeast 223 257 4,000 2,826 Climbing Atlanta TRACON
Fri 05:17:04 PM 33.7833 -84.2833 20° North 287 330 9,900 2,672 Climbing Atlanta TRACON
Fri 05:19:29 PM 33.8142 -84.5314 279° West 331 381 15,800 2,459 Climbing Atlanta Center
Fri 05:20:29 PM 33.8136 -84.6364 270° West 326 375 18,300 2,400 Climbing Atlanta Center
Fri 05:21:29 PM 33.8089 -84.7489 267° West 326 375 20,600 2,300 Climbing Atlanta Center
Fri 05:22:29 PM 33.8058 -84.8839 268° West 349 402 22,900 2,100 Climbing Atlanta Center
Fri 05:23:29 PM 33.7947 -85.0061 264° West 369 425 24,800 1,650 Climbing Atlanta Center
Fri 05:24:29 PM 33.7789 -85.1311 261° West 380 437 26,200 1,100 Climbing Atlanta Center
Fri 05:25:29 PM 33.7756 -85.2733 268° West 409 471 27,000 1,200 Climbing Atlanta Center
Fri 05:26:29 PM 33.7992 -85.4111 282° West 428 493 28,600 1,700 Climbing Atlanta Center
Fri 05:27:29 PM 33.8206 -85.5342 282° West 423 487 30,400 1,850 Climbing Atlanta Center
Fri 05:28:29 PM 33.8461 -85.6722 283° West 423 487 32,300 2,100 Climbing Atlanta Center
Fri 05:29:29 PM 33.8842 -85.7928 291° West 407 468 34,600 1,800 Climbing Atlanta Center
Fri 05:30:29 PM 33.9200 -85.9064 291° West 386 444 35,900 700 Climbing Atlanta Center
Fri 05:31:29 PM 33.9578 -86.0247 291° West 380 437 36,000 50 Climbing Atlanta Center
Fri 05:32:29 PM 33.9956 -86.1411 291° West 380 437 36,000  Level Atlanta Center
Fri 05:33:29 PM 34.0267 -86.2619 287° West 380 437 36,000  Level Atlanta Center
Fri 05:34:29 PM 34.0600 -86.3808 289° West 380 437 36,000  Level Atlanta Center
Fri 05:35:29 PM 34.0933 -86.4994 289° West 375 432 36,000  Level Atlanta Center
Fri 05:36:29 PM 34.1261 -86.6183 288° West 375 432 36,000  Level Atlanta Center
Fri 05:37:29 PM 34.1614 -86.7350 290° West 369 425 36,000  Level Atlanta Center
Fri 05:37:45 PM 34.1711 -86.7797 285° West 369 425 36,000  Level Memphis Center
Fri 05:38:45 PM 34.2058 -86.9014 289° West 369 425 36,000  Level Memphis Center
Fri 05:39:45 PM 34.2361 -87.0158 288° West 387 445 36,000  Level Memphis Center
Fri 05:40:45 PM 34.2686 -87.1400 288° West 392 451 36,000  Level Memphis Center
Fri 05:41:45 PM 34.3094 -87.2694 291° West 384 442 36,000  Level Memphis Center
Fri 05:42:45 PM 34.3417 -87.3939 287° West 377 434 36,000  Level Memphis Center
Fri 05:43:45 PM 34.3739 -87.5161 288° West 382 440 36,000  Level Memphis Center
Fri 05:44:45 PM 34.4033 -87.6158 290° West 382 440 36,000  Level Memphis Center
Fri 05:45:45 PM 34.4350 -87.7408 287° West 382 440 36,000 -50 Level Memphis Center
Fri 05:46:45 PM 34.4778 -87.8906 289° West 382 440 35,900  Descending Memphis Center
Fri 05:47:45 PM 34.5156 -88.0131 291° West 382 440 36,000 50 Climbing Memphis Center
Fri 05:48:45 PM 34.5431 -88.1408 285° West 387 445 36,000  Level Memphis Center
Fri 05:49:45 PM 34.5744 -88.2636 287° West 400 460 36,000  Level Memphis Center
Fri 05:50:45 PM 34.6078 -88.3889 288° West 400 460 36,000  Level Memphis Center
Fri 05:51:45 PM 34.6431 -88.5117 289° West 394 453 36,000  Level Memphis Center
Fri 05:52:45 PM 34.6742 -88.6400 286° West 394 453 36,000  Level Memphis Center
Fri 05:53:45 PM 34.7072 -88.7731 287° West 400 460 36,000  Level Memphis Center
Fri 05:54:45 PM 34.7422 -88.8989 289° West 400 460 36,000  Level Memphis Center
Fri 05:55:45 PM 34.7750 -89.0297 287° West 400 460 36,000  Level Memphis Center
Fri 05:56:45 PM 34.8075 -89.1608 287° West 400 460 36,000  Level Memphis Center
Fri 05:57:45 PM 34.8419 -89.2894 288° West 400 460 36,000  Level Memphis Center
Fri 05:58:45 PM 34.8767 -89.4306 287° West 400 460 36,000  Level Memphis Center
Fri 05:59:45 PM 34.9108 -89.5569 288° West 395 455 36,000  Level Memphis Center
Fri 06:00:45 PM 34.9386 -89.6606 288° West 401 461 36,000  Level Memphis Center
Fri 06:01:45 PM 34.9769 -89.8097 287° West 412 474 36,000  Level Memphis Center
Fri 06:02:45 PM 35.0086 -89.9414 286° West 418 481 36,000  Level Memphis Center
Fri 06:03:45 PM 35.0425 -90.0653 289° West 400 460 36,000  Level Memphis Center
Fri 06:04:45 PM 35.0822 -90.1897 291° West 394 453 36,000  Level Memphis Center
Fri 06:05:45 PM 35.1222 -90.3139 292° West 389 448 36,000  Level Memphis Center
Fri 06:06:45 PM 35.1639 -90.4486 291° West 389 448 36,000  Level Memphis Center
Fri 06:07:45 PM 35.2011 -90.5731 290° West 389 448 36,000  Level Memphis Center
Fri 06:08:45 PM 35.2406 -90.6978 291° West 394 453 36,000  Level Memphis Center
Fri 06:09:45 PM 35.2797 -90.8200 291° West 394 453 36,000  Level Memphis Center
Fri 06:10:45 PM 35.3167 -90.9500 289° West 394 453 36,000  Level Memphis Center
Fri 06:11:45 PM 35.3578 -91.0700 293° West 389 448 36,000  Level Memphis Center
Fri 06:12:45 PM 35.3925 -91.1900 290° West 384 442 36,000  Level Memphis Center
Fri 06:13:45 PM 35.4333 -91.3153 292° West 393 452 36,000  Level Memphis Center
Fri 06:14:45 PM 35.4700 -91.4356 291° West 393 452 36,000  Level Memphis Center
Fri 06:15:45 PM 35.5064 -91.5558 290° West 386 444 36,000  Level Memphis Center
Fri 06:16:45 PM 35.5406 -91.6786 289° West 380 437 36,000  Level Memphis Center
Fri 06:17:45 PM 35.5789 -91.7992 291° West 380 437 36,000  Level Memphis Center
Fri 06:18:45 PM 35.5858 -91.9297 274° West 380 437 36,000  Level Memphis Center
Fri 06:19:45 PM 35.5883 -92.0572 271° West 380 437 36,000  Level Memphis Center
Fri 06:20:45 PM 35.6303 -92.1783 293° West 375 432 36,000  Level Memphis Center
Fri 06:21:45 PM 35.6806 -92.2994 297° West 387 445 36,000  Level Memphis Center
Fri 06:22:45 PM 35.7350 -92.4133 301° West 387 445 36,000  Level Memphis Center
Fri 06:23:45 PM 35.7917 -92.5247 302° West 387 445 36,000  Level Memphis Center
Fri 06:24:45 PM 35.8442 -92.6258 303° West 387 445 36,000  Level Memphis Center
Fri 06:25:45 PM 35.8961 -92.7375 300° West 387 445 36,000  Level Memphis Center
Fri 06:26:45 PM 35.9483 -92.8492 300° West 381 438 36,000  Level Memphis Center
Fri 06:27:45 PM 36.0000 -92.9636 299° West 381 438 36,000  Level Memphis Center
Fri 06:28:45 PM 36.0539 -93.0758 301° West 381 438 36,000  Level Memphis Center
Fri 06:29:45 PM 36.1078 -93.1856 301° West 381 438 36,000  Level Memphis Center
Fri 06:30:45 PM 36.1614 -93.3056 299° West 387 445 36,000  Level Memphis Center
Fri 06:31:45 PM 36.1958 -93.4278 289° West 382 440 36,000  Level Memphis Center
Fri 06:32:45 PM 36.2197 -93.5547 283° West 382 440 36,000  Level Memphis Center
Fri 06:33:45 PM 36.2436 -93.6817 283° West 377 434 36,000  Level Memphis Center
Fri 06:34:45 PM 36.2689 -93.8217 283° West 377 434 36,000  Level Memphis Center
Fri 06:35:45 PM 36.2967 -93.9492 285° West 377 434 36,000  Level Memphis Center
Fri 06:36:45 PM 36.3200 -94.0764 283° West 377 434 36,000  Level Memphis Center
Fri 06:38:48 PM 36.3722 -94.3261 285° West 379 436 36,000  Level Kansas City Center
Fri 06:39:52 PM 36.3950 -94.4533 283° West 376 433 36,000  Level Kansas City Center
Fri 06:40:52 PM 36.4189 -94.5789 283° West 376 433 36,000  Level Kansas City Center
Fri 06:41:56 PM 36.4436 -94.7056 284° West 376 433 36,000  Level Kansas City Center
Fri 06:42:57 PM 36.4681 -94.8311 284° West 375 432 36,000  Level Kansas City Center
Fri 06:43:58 PM 36.5208 -94.9747 295° West 379 436 36,000  Level Kansas City Center
Fri 06:45:01 PM 36.5644 -95.0936 295° West 380 437 36,000 194 Level Kansas City Center
Fri 06:46:02 PM 36.6083 -95.2119 295° West 379 436 36,400 720 Climbing Kansas City Center
Fri 06:47:06 PM 36.6528 -95.3328 295° West 386 444 37,500 768 Climbing Kansas City Center
Fri 06:48:07 PM 36.6719 -95.4589 281° West 375 432 38,000 248 Climbing Kansas City Center
Fri 06:49:07 PM 36.6978 -95.6089 282° West 372 428 38,000  Level Kansas City Center
Fri 06:50:11 PM 36.7197 -95.7344 282° West 373 429 38,000  Level Kansas City Center
Fri 06:51:14 PM 36.7419 -95.8622 282° West 377 434 38,000  Level Kansas City Center
Fri 06:52:14 PM 36.7625 -95.9892 281° West 374 430 38,000  Level Kansas City Center
Fri 06:53:15 PM 36.7844 -96.1161 282° West 376 433 38,000  Level Kansas City Center
Fri 06:54:20 PM 36.8053 -96.2422 282° West 373 429 38,000  Level Kansas City Center
Fri 06:55:20 PM 36.8314 -96.3947 282° West 373 429 38,000  Level Kansas City Center
Fri 06:56:24 PM 36.8519 -96.5225 281° West 375 432 38,000  Level Kansas City Center
Fri 06:57:25 PM 36.8739 -96.6517 282° West 378 435 38,000  Level Kansas City Center
Fri 06:58:26 PM 36.8953 -96.7842 281° West 383 441 38,000  Level Kansas City Center
Fri 06:59:30 PM 36.9158 -96.9147 281° West 384 442 38,000  Level Kansas City Center
Fri 07:00:31 PM 36.9375 -97.0461 282° West 385 443 38,000  Level Kansas City Center
Fri 07:01:31 PM 36.9578 -97.1800 281° West 389 448 38,000  Level Kansas City Center
Fri 07:02:35 PM 36.9786 -97.3142 281° West 392 451 38,000  Level Kansas City Center
Fri 07:03:35 PM 37.0031 -97.4697 281° West 384 442 38,000  Level Kansas City Center
Fri 07:04:39 PM 37.0231 -97.6003 281° West 382 440 38,000  Level Kansas City Center
Fri 07:05:39 PM 37.0436 -97.7311 281° West 382 440 38,000  Level Kansas City Center
Fri 07:06:42 PM 37.0631 -97.8631 281° West 384 442 38,000  Level Kansas City Center
Fri 07:07:44 PM 37.0836 -97.9969 281° West 387 445 38,000  Level Kansas City Center
Fri 07:08:45 PM 37.1031 -98.1272 281° West 384 442 38,000  Level Kansas City Center
Fri 07:09:48 PM 37.1214 -98.2583 280° West 382 440 38,000  Level Kansas City Center
Fri 07:10:49 PM 37.1453 -98.4153 281° West 382 440 38,000  Level Kansas City Center
Fri 07:11:49 PM 37.1642 -98.5497 280° West 386 444 38,000 48 Level Kansas City Center
Fri 07:12:53 PM 37.1844 -98.6817 281° West 387 445 38,100  Climbing Kansas City Center
Fri 07:13:54 PM 37.2017 -98.8114 280° West 380 437 38,000 -49 Descending Kansas City Center
Fri 07:14:55 PM 37.2217 -98.9408 281° West 378 435 38,000  Level Kansas City Center
Fri 07:15:59 PM 37.2386 -99.0694 279° West 377 434 38,000  Level Kansas City Center
Fri 07:16:59 PM 37.2583 -99.2075 280° West 375 432 38,000  Level Kansas City Center
Fri 07:18:00 PM 37.2767 -99.3372 280° West 377 434 38,000 48 Level Kansas City Center
Fri 07:19:04 PM 37.2964 -99.4792 280° West 381 438 38,100  Climbing Kansas City Center
Fri 07:20:04 PM 37.3161 -99.6256 280° West 381 438 38,000 -48 Descending Kansas City Center
Fri 07:21:08 PM 37.3339 -99.7514 280° West 382 440 38,000  Level Kansas City Center
Fri 07:22:08 PM 37.3506 -99.8783 279° West 384 442 38,000 50 Level Kansas City Center
Fri 07:23:09 PM 37.3706 -100.0244 280° West 381 438 38,100  Climbing Kansas City Center
Fri 07:24:13 PM 37.3875 -100.1517 280° West 384 442 38,000  Descending Kansas City Center
Fri 07:25:13 PM 37.4078 -100.3006 280° West 386 444 38,100  Climbing Kansas City Center
Fri 07:26:14 PM 37.4239 -100.4289 279° West 388 447 38,000  Descending Kansas City Center
Fri 07:27:17 PM 37.4433 -100.5778 279° West 386 444 38,100  Climbing Kansas City Center
Fri 07:28:20 PM 37.4597 -100.7067 279° West 387 445 38,000 -48 Descending Kansas City Center
Fri 07:29:21 PM 37.4758 -100.8361 279° West 388 447 38,000  Level Kansas City Center
Fri 07:30:22 PM 37.4939 -100.9897 278° West 391 450 38,000  Level Kansas City Center
Fri 07:31:22 PM 37.5094 -101.1206 279° West 390 449 38,000  Level Kansas City Center
Fri 07:32:25 PM 37.5264 -101.2492 279° West 389 448 38,000  Level Kansas City Center
Fri 07:33:26 PM 37.5447 -101.4017 279° West 393 452 38,000  Level Kansas City Center
Fri 07:34:29 PM 37.5608 -101.5322 279° West 393 452 38,000  Level Kansas City Center
Fri 07:35:30 PM 37.5783 -101.6833 278° West 391 450 38,000  Level Kansas City Center
Fri 07:36:32 PM 37.5933 -101.8139 278° West 392 451 38,000  Level Kansas City Center
Fri 07:37:34 PM 37.6086 -101.9425 279° West 390 449 38,000  Level Kansas City Center
Fri 07:38:34 PM 37.6253 -102.0914 278° West 385 443 38,000  Level Kansas City Center
Fri 07:39:36 PM 37.6403 -102.2211 278° West 388 447 38,000  Level Kansas City Center
Fri 07:40:50 PM 37.6603 -102.3936 278° West 389 448 38,000  Level Denver Center
Fri 07:41:53 PM 37.6758 -102.5394 278° West 392 451 38,000  Level Denver Center
Fri 07:42:55 PM 37.6919 -102.6703 279° West 395 455 38,000  Level Denver Center
Fri 07:43:57 PM 37.7089 -102.8319 278° West 396 456 38,000  Level Denver Center
Fri 07:44:59 PM 37.7228 -102.9592 278° West 404 465 38,000  Level Denver Center
Fri 07:46:01 PM 37.7403 -103.1158 278° West 406 467 38,000 48 Level Denver Center
Fri 07:47:03 PM 37.7536 -103.2519 277° West 409 471 38,100  Climbing Denver Center
Fri 07:48:05 PM 37.7694 -103.4100 277° West 408 470 38,000  Descending Denver Center
Fri 07:49:07 PM 37.7839 -103.5447 278° West 406 467 38,100  Climbing Denver Center
Fri 07:50:09 PM 37.8000 -103.7017 277° West 406 467 38,000 -48 Descending Denver Center
Fri 07:51:11 PM 37.8122 -103.8361 277° West 405 466 38,000  Level Denver Center
Fri 07:52:13 PM 37.8278 -103.9906 277° West 402 463 38,000 48 Level Denver Center
Fri 07:53:15 PM 37.8406 -104.1236 277° West 402 463 38,100 48 Climbing Denver Center
Fri 07:54:17 PM 37.8556 -104.2786 277° West 400 460 38,100  Level Denver Center
Fri 07:55:19 PM 37.8689 -104.4117 277° West 401 461 38,100 -48 Level Denver Center
Fri 07:56:21 PM 37.8828 -104.5683 276° West 402 463 38,000 -48 Descending Denver Center
Fri 07:57:23 PM 37.8947 -104.7039 276° West 406 467 38,000  Level Denver Center
Fri 07:59:27 PM 37.9233 -105.0081 277° West 412 474 38,000  Level Denver Center
Fri 08:00:29 PM 37.9364 -105.1536 277° West 413 475 38,000 49 Level Denver Center
Fri 08:01:30 PM 37.9500 -105.2994 277° West 411 473 38,100  Climbing Denver Center
Fri 08:02:32 PM 37.9628 -105.4606 276° West 413 475 38,000  Descending Denver Center
Fri 08:03:34 PM 37.9744 -105.5994 276° West 414 476 38,100  Climbing Denver Center
Fri 08:04:36 PM 37.9892 -105.7597 277° West 411 473 38,000 -48 Descending Denver Center
Fri 08:05:38 PM 37.9997 -105.8992 276° West 414 476 38,000  Level Denver Center
Fri 08:06:40 PM 38.0106 -106.0375 276° West 413 475 38,000  Level Denver Center
Fri 08:07:42 PM 38.0231 -106.1994 276° West 413 475 38,000  Level Denver Center
Fri 08:08:44 PM 38.0328 -106.3386 275° West 414 476 38,000  Level Denver Center
Fri 08:09:46 PM 38.0456 -106.5008 276° West 416 479 38,000  Level Denver Center
Fri 08:10:48 PM 38.0567 -106.6436 276° West 417 480 38,000  Level Denver Center
Fri 08:11:50 PM 38.0697 -106.8069 276° West 415 478 38,000  Level Denver Center
Fri 08:12:52 PM 38.0800 -106.9478 275° West 418 481 38,000  Level Denver Center
Fri 08:13:54 PM 38.0900 -107.0969 275° West 418 481 38,000  Level Denver Center
Fri 08:14:56 PM 38.1008 -107.2544 275° West 421 484 38,000  Level Denver Center
Fri 08:15:58 PM 38.1128 -107.4194 275° West 421 484 38,000  Level Denver Center
Fri 08:17:00 PM 38.1219 -107.5608 275° West 419 482 38,000  Level Denver Center
Fri 08:18:02 PM 38.1314 -107.7033 275° West 421 484 38,000  Level Denver Center
Fri 08:19:04 PM 38.1425 -107.8703 275° West 424 488 38,000  Level Denver Center
Fri 08:20:06 PM 38.1511 -108.0161 274° West 430 495 38,000  Level Denver Center
Fri 08:21:08 PM 38.1617 -108.1856 275° West 430 495 38,000  Level Denver Center
Fri 08:22:09 PM 38.1706 -108.3306 275° West 430 495 38,000 49 Level Denver Center
Fri 08:23:11 PM 38.1819 -108.5022 275° West 434 499 38,100  Climbing Denver Center
Fri 08:24:13 PM 38.1894 -108.6464 274° West 429 494 38,000 -48 Descending Denver Center
Fri 08:25:15 PM 38.1994 -108.8169 274° West 432 497 38,000  Level Denver Center
Fri 08:26:17 PM 38.2069 -108.9611 274° West 429 494 38,000 48 Level Denver Center
Fri 08:27:19 PM 38.2156 -109.1081 274° West 433 498 38,100  Climbing Denver Center
Fri 08:28:21 PM 38.2242 -109.2786 274° West 431 496 38,000 -49 Descending Denver Center
Fri 08:29:22 PM 38.2317 -109.4264 274° West 436 502 38,000  Level Denver Center
Fri 08:30:24 PM 38.2406 -109.5986 274° West 437 503 38,000 48 Level Denver Center
Fri 08:31:26 PM 38.2475 -109.7469 273° West 439 505 38,100  Climbing Denver Center
Fri 08:32:28 PM 38.2564 -109.9203 274° West 439 505 38,000 -48 Descending Denver Center
Fri 08:33:30 PM 38.2625 -110.0681 273° West 440 506 38,000  Level Denver Center
Fri 08:34:31 PM 38.2694 -110.2164 273° West 439 505 38,000  Level Denver Center
Fri 08:35:33 PM 38.2775 -110.3908 273° West 442 509 38,000  Level Denver Center
Fri 08:36:47 PM 38.2847 -110.5903 273° West 443 510 38,000  Level Denver Center
Fri 08:37:42 PM 38.2922 -110.7153 274° West 440 506 38,000  Level Salt Lake Center
Fri 08:38:43 PM 38.2972 -110.8881 272° West 437 503 38,000  Level Salt Lake Center
Fri 08:39:45 PM 38.3044 -111.0211 274° West 436 502 38,000  Level Salt Lake Center
Fri 08:40:46 PM 38.3108 -111.2069 273° West 440 506 38,000  Level Salt Lake Center
Fri 08:41:48 PM 38.3156 -111.3603 272° West 437 503 38,000  Level Salt Lake Center
Fri 08:42:50 PM 38.3192 -111.5122 272° West 432 497 38,000  Level Salt Lake Center
Fri 08:43:51 PM 38.3244 -111.6675 273° West 437 503 38,000  Level Salt Lake Center
Fri 08:44:53 PM 38.3289 -111.8222 272° West 439 505 38,000 49 Level Salt Lake Center
Fri 08:45:54 PM 38.3339 -111.9778 272° West 441 507 38,100  Climbing Salt Lake Center
Fri 08:46:56 PM 38.3397 -112.1333 273° West 442 509 38,000 -48 Descending Salt Lake Center
Fri 08:47:58 PM 38.3442 -112.3192 272° West 439 505 38,000  Level Salt Lake Center
Fri 08:48:59 PM 38.3483 -112.4736 272° West 439 505 38,000  Level Salt Lake Center
Fri 08:50:01 PM 38.3528 -112.6278 272° West 439 505 38,000  Level Salt Lake Center
Fri 08:51:02 PM 38.3558 -112.7797 272° West 435 501 38,000  Level Salt Lake Center
Fri 08:52:04 PM 38.3589 -112.9317 272° West 433 498 38,000  Level Salt Lake Center
Fri 08:53:05 PM 38.3567 -113.0825 269° West 432 497 38,000  Level Salt Lake Center
Fri 08:54:07 PM 38.3425 -113.2639 264° West 432 497 38,000  Level Salt Lake Center
Fri 08:55:08 PM 38.3308 -113.4142 264° West 430 495 38,000  Level Salt Lake Center
Fri 08:56:10 PM 38.3189 -113.5653 264° West 432 497 38,000  Level Salt Lake Center
Fri 08:57:11 PM 38.3072 -113.7158 264° West 431 496 38,000  Level Salt Lake Center
Fri 08:58:13 PM 38.2953 -113.8692 264° West 434 499 38,000  Level Salt Lake Center
Fri 08:59:14 PM 38.2828 -114.0189 264° West 430 495 38,000  Level Salt Lake Center
Fri 09:00:16 PM 38.2711 -114.1672 264° West 425 489 38,000  Level Salt Lake Center
Fri 09:01:17 PM 38.2567 -114.3175 263° West 428 493 38,000  Level Salt Lake Center
Fri 09:02:19 PM 38.3022 -114.4822 289° West 418 481 38,000  Level Salt Lake Center
Fri 09:03:20 PM 38.3833 -114.5883 314° West 417 480 38,000  Level Salt Lake Center
Fri 09:04:22 PM 38.4578 -114.7000 310° West 416 479 38,000 -390 Level Salt Lake Center
Fri 09:05:23 PM 38.5336 -114.8119 311° West 416 479 37,200 -829 Descending Salt Lake Center
Fri 09:06:25 PM 38.6067 -114.9267 309° West 416 479 36,300 -581 Descending Salt Lake Center
Fri 09:07:27 PM 38.6783 -115.0392 309° West 411 473 36,000 -146 Descending Salt Lake Center
Fri 09:08:28 PM 38.6947 -115.1786 279° West 422 486 36,000  Level Salt Lake Center
Fri 09:09:29 PM 38.6522 -115.3272 250° West 445 512 36,000  Level Salt Lake Center
Fri 09:10:31 PM 38.6100 -115.4997 253° West 441 507 36,000  Level Salt Lake Center
Fri 09:11:32 PM 38.5728 -115.6514 253° West 446 513 36,000  Level Salt Lake Center
Fri 09:12:34 PM 38.5322 -115.8031 251° West 451 519 36,000  Level Salt Lake Center
Fri 09:13:35 PM 38.4942 -115.9550 252° West 451 519 36,000  Level Salt Lake Center
Fri 09:14:37 PM 38.4528 -116.1089 251° West 456 525 36,000  Level Salt Lake Center
Fri 09:15:27 PM 38.4208 -116.2286 251° West 449 517 36,000  Level Oakland Center
Fri 09:16:28 PM 38.3742 -116.4075 252° West 446 513 36,000  Level Oakland Center
Fri 09:17:30 PM 38.3347 -116.5581 252° West 447 514 36,000  Level Oakland Center
Fri 09:18:31 PM 38.2942 -116.7050 251° West 443 510 36,000  Level Oakland Center
Fri 09:19:44 PM 38.2467 -116.8836 251° West 443 510 36,000  Level Salt Lake Center
Fri 09:20:46 PM 38.2078 -117.0294 251° West 439 505 36,000  Level Salt Lake Center
Fri 09:21:35 PM 38.1781 -117.1386 251° West 437 503 36,000  Level Oakland Center
Fri 09:22:36 PM 38.1381 -117.2839 251° West 437 503 36,000  Level Oakland Center
Fri 09:23:38 PM 38.0911 -117.4547 251° West 441 507 36,000  Level Oakland Center
Fri 09:24:39 PM 38.0506 -117.6003 251° West 440 506 36,000  Level Oakland Center
Fri 09:25:41 PM 38.0103 -117.7450 251° West 436 502 36,000  Level Oakland Center
Fri 09:26:42 PM 37.9897 -117.8950 260° West 430 495 36,000  Level Oakland Center
Fri 09:27:43 PM 37.9739 -118.0453 262° West 432 497 36,000  Level Oakland Center
Fri 09:28:45 PM 37.9575 -118.1967 262° West 432 497 36,000  Level Oakland Center
Fri 09:29:46 PM 37.9414 -118.3478 262° West 433 498 36,000  Level Oakland Center
Fri 09:30:48 PM 37.9206 -118.5286 262° West 433 498 36,000  Level Oakland Center
Fri 09:31:49 PM 37.9036 -118.6803 262° West 435 501 36,000  Level Oakland Center
Fri 09:32:50 PM 37.8881 -118.8314 263° West 432 497 36,000  Level Oakland Center
Fri 09:33:52 PM 37.8717 -118.9817 262° West 432 497 36,000  Level Oakland Center
Fri 09:34:53 PM 37.8544 -119.1214 261° West 429 494 36,000  Level Oakland Center
Fri 09:35:54 PM 37.8369 -119.2722 262° West 432 497 36,000 -146 Level Oakland Center
Fri 09:36:56 PM 37.8186 -119.4244 261° West 436 502 35,700 -732 Descending Oakland Center
Fri 09:37:57 PM 37.7983 -119.6047 262° West 432 497 34,500 -1,033 Descending Oakland Center
Fri 09:38:58 PM 37.7789 -119.7606 261° West 446 513 33,600 -934 Descending Oakland Center
Fri 09:39:59 PM 37.7606 -119.9156 262° West 447 514 32,600 -927 Descending Oakland Center
Fri 09:41:01 PM 37.7411 -120.0731 261° West 452 520 31,700 -927 Descending Oakland Center
Fri 09:42:02 PM 37.7217 -120.2294 261° West 451 519 30,700 -1,279 Descending Oakland Center
Fri 09:43:03 PM 37.7022 -120.3828 261° West 445 512 29,100 -1,918 Descending Oakland Center
Fri 09:44:04 PM 37.6825 -120.5317 261° West 433 498 26,800 -2,244 Descending Oakland Center
Fri 09:45:06 PM 37.6650 -120.6742 261° West 417 480 24,500 -2,400 Descending Oakland Center
Fri 09:45:24 PM 37.6500 -120.7333 252° West 414 476 23,600 -2,231 Descending Northern Cal TRACON
Fri 09:46:24 PM 37.6333 -120.8667 261° West 402 463 21,600 -2,000 Descending Northern Cal TRACON
Fri 09:47:30 PM 37.6167 -121.0167 262° West 402 463 19,400 -1,810 Descending Northern Cal TRACON
Fri 09:48:30 PM 37.6000 -121.1500 261° West 386 444 17,800 -2,050 Descending Northern Cal TRACON
Fri 09:49:30 PM 37.5833 -121.2833 261° West 378 435 15,300 -2,150 Descending Northern Cal TRACON
Fri 09:50:30 PM 37.5833 -121.4000 270° West 363 418 13,500 -1,947 Descending Northern Cal TRACON
Fri 09:51:24 PM 37.5667 -121.5167 260° West 350 403 11,600 -1,368 Descending Northern Cal TRACON
Fri 09:52:24 PM 37.5333 -121.6333 250° West 323 372 10,900 -900 Descending Northern Cal TRACON
Fri 09:53:24 PM 37.5167 -121.7333 258° West 301 346 9,800 -1,000 Descending Northern Cal TRACON
Fri 09:54:24 PM 37.5000 -121.8167 256° West 280 322 8,900 -905 Descending Northern Cal TRACON
Fri 09:55:30 PM 37.4833 -121.9167 258° West 237 273 7,900 -1,143 Descending Northern Cal TRACON
Fri 09:56:30 PM 37.5000 -121.9833 288° West 222 255 6,500 -1,368 Descending Northern Cal TRACON
Fri 09:57:24 PM 37.5167 -122.0500 288° West 212 244 5,300 -1,263 Descending Northern Cal TRACON
Fri 09:58:24 PM 37.5333 -122.1167 288° West 169 194 4,100 -1,250 Descending Northern Cal TRACON
Fri 09:59:24 PM 37.5500 -122.1667 293° West 157 181 2,800 -1,000 Descending Northern Cal TRACON
Fri 10:00:24 PM 37.5667 -122.2167 293° West 163 188 2,100 -738 Descending Northern Cal TRACON
Fri 10:01:26 PM 37.5831 -122.2711 291° West 161 185 1,300 -683 Descending Oakland Center
Fri 10:02:27 PM 37.5936 -122.3183 286° West 152 175 700 -541 Descending Oakland Center
Fri 10:03:28 PM 37.6075 -122.3483 300° West 139 160 200 -492 Descending Oakland Center
Fri 10:05:00 PM 37.6167 -122.3667 322° Northwest  Level FlightAware Approximate
Fri 10:12:00 PM 37.6191 -122.3752 322° Northwest  Level Estimated

Login

Don't have an account? Register now (free) for customized features, flight alerts, and more!